Time;durP1;ratioP1;P1;durP2;ratioP2;P2;SDS_P1;SDS_P2;PMS_P1;PMS_P2;Temp;Humidity;BMP_temperature;BMP_pressure;BME280_temperature;BME280_humidity;BME280_pressure;Samples;Min_cycle;Max_cycle;Signal;HPM_P1;HPM_P2
2023/02/12 00:01:58;;;;;;;5.95;3.38;;;8.40;96.40;;;;;;4706429;30;20052;-82
2023/02/12 00:04:25;;;;;;;6.68;3.10;;;8.50;96.40;;;;;;4729290;30;20123;-89
2023/02/12 00:11:17;;;;;;;7.32;4.10;;;8.50;96.40;;;;;;4679758;30;20037;-90
2023/02/12 00:13:47;;;;;;;5.72;3.55;;;8.40;96.40;;;;;;4722091;30;20052;-90
2023/02/12 00:16:20;;;;;;;8.85;4.65;;;8.40;96.40;;;;;;4721751;30;20052;-90
2023/02/12 00:32:22;;;;;;;7.25;4.07;;;8.00;96.50;;;;;;4664756;30;20092;-87
2023/02/12 00:39:30;;;;;;;6.50;3.40;;;7.80;96.80;;;;;;4533496;31;20062;-89
2023/02/12 00:55:09;;;;;;;8.25;3.97;;;7.50;97.10;;;;;;4583547;31;20064;-89
2023/02/12 00:58:15;;;;;;;;;;;;;;;;;;;;;
2023/02/12 01:05:00;;;;;;;6.80;3.97;;;7.50;97.10;;;;;;4603583;31;20060;-89
2023/02/12 01:09:00;;;;;;;5.70;2.92;;;7.50;97.10;;;;;;4641362;30;20062;-90
2023/02/12 01:13:03;;;;;;;5.47;2.60;;;7.40;97.20;;;;;;4614060;30;20070;-85
2023/02/12 01:15:31;;;;;;;5.22;2.72;;;7.40;97.30;;;;;;4651090;30;20078;-84
2023/02/12 01:18:06;;;;;;;4.95;3.08;;;7.40;97.30;;;;;;4665613;30;20054;-90
2023/02/12 01:20:33;;;;;;;5.47;3.05;;;7.40;97.30;;;;;;4668680;30;20058;-89
2023/02/12 01:23:17;;;;;;;6.40;3.30;;;7.30;97.30;;;;;;4680948;30;20503;-92
2023/02/12 01:25:45;;;;;;;5.57;2.60;;;7.30;97.40;;;;;;4707143;30;20125;-89
2023/02/12 01:28:15;;;;;;;6.25;3.22;;;7.30;97.40;;;;;;4684964;30;20173;-91
2023/02/12 01:30:43;;;;;;;6.03;3.83;;;7.20;97.40;;;;;;4669198;30;20065;-90
2023/02/12 01:33:15;;;;;;;6.18;2.90;;;7.20;97.50;;;;;;4668751;30;20212;-90
2023/02/12 01:35:42;;;;;;;5.95;3.17;;;7.20;97.50;;;;;;4697288;30;20057;-92
2023/02/12 01:38:10;;;;;;;6.30;2.97;;;7.10;97.50;;;;;;4686917;30;20057;-92
2023/02/12 01:40:37;;;;;;;6.53;3.40;;;7.10;97.60;;;;;;4716397;30;20563;-93
2023/02/12 01:43:14;;;;;;;7.18;2.92;;;7.10;97.60;;;;;;4738223;30;20048;-92
2023/02/12 01:45:51;;;;;;;6.80;3.97;;;7.10;97.60;;;;;;4731987;30;20053;-90
2023/02/12 01:48:24;;;;;;;7.70;3.50;;;7.10;97.60;;;;;;4719967;30;20060;-90
2023/02/12 01:51:05;;;;;;;7.30;3.88;;;7.20;97.60;;;;;;4721072;30;20060;-93
2023/02/12 01:53:39;;;;;;;6.78;4.00;;;7.20;97.60;;;;;;4721172;30;20049;-92
2023/02/12 01:56:08;;;;;;;7.93;4.22;;;7.10;97.50;;;;;;4721281;30;20085;-94
2023/02/12 01:58:51;;;;;;;7.60;3.80;;;7.10;97.50;;;;;;4721375;30;20057;-94
2023/02/12 02:01:50;;;;;;;6.35;3.13;;;7.10;97.50;;;;;;4721296;30;20139;-90
2023/02/12 02:04:31;;;;;;;6.53;3.42;;;7.20;97.50;;;;;;4720926;30;20048;-93
2023/02/12 02:07:26;;;;;;;7.03;3.30;;;7.20;97.40;;;;;;4720994;30;20048;-93
2023/02/12 02:10:02;;;;;;;6.55;3.13;;;7.20;97.40;;;;;;4716377;30;20050;-93
2023/02/12 02:15:40;;;;;;;6.70;3.30;;;7.20;97.40;;;;;;4726000;30;20048;-93
2023/02/12 02:18:22;;;;;;;6.75;3.33;;;7.10;97.40;;;;;;4717635;30;20056;-92
2023/02/12 02:20:58;;;;;;;5.85;3.13;;;7.10;97.50;;;;;;4735469;30;20421;-89
2023/02/12 02:23:28;;;;;;;7.82;3.33;;;7.00;97.50;;;;;;4706062;30;20117;-88
2023/02/12 02:26:25;;;;;;;6.72;3.38;;;7.00;97.50;;;;;;4720466;30;20110;-86
2023/02/12 02:29:38;;;;;;;7.10;3.53;;;7.00;97.50;;;;;;4702506;30;20049;-85
2023/02/12 02:32:32;;;;;;;5.90;2.83;;;7.00;97.50;;;;;;4701476;30;20132;-90
2023/02/12 02:35:26;;;;;;;5.35;2.92;;;7.00;97.60;;;;;;4705847;30;20513;-90
2023/02/12 02:38:05;;;;;;;7.80;3.72;;;7.00;97.60;;;;;;4720446;30;20056;-88
2023/02/12 02:41:21;;;;;;;6.15;3.80;;;6.90;97.60;;;;;;4719952;30;20080;-86
2023/02/12 02:47:10;;;;;;;6.53;3.42;;;6.90;97.70;;;;;;4719379;30;20120;-90
2023/02/12 02:50:03;;;;;;;6.65;3.63;;;6.80;97.60;;;;;;4726916;30;20064;-91
2023/02/12 02:52:59;;;;;;;7.38;3.60;;;6.80;97.60;;;;;;4720010;30;20048;-88
2023/02/12 02:55:34;;;;;;;6.63;3.25;;;6.80;97.60;;;;;;4720044;30;20140;-87
2023/02/12 02:58:15;;;;;;;7.60;3.38;;;6.70;97.70;;;;;;4720249;30;20059;-89
2023/02/12 03:01:01;;;;;;;7.80;4.30;;;6.60;97.80;;;;;;4708691;30;20454;-90
2023/02/12 03:03:40;;;;;;;8.23;3.65;;;6.50;97.80;;;;;;4723754;30;20155;-89
2023/02/12 03:06:17;;;;;;;7.68;3.53;;;6.50;97.90;;;;;;4708702;30;20053;-89
2023/02/12 03:09:05;;;;;;;7.40;3.63;;;6.40;97.90;;;;;;4723454;30;20498;-89
2023/02/12 03:11:33;;;;;;;7.15;3.90;;;6.40;97.90;;;;;;4723961;30;20059;-89
2023/02/12 03:14:20;;;;;;;6.00;3.25;;;6.40;98.00;;;;;;4723353;30;20159;-88
2023/02/12 03:17:05;;;;;;;6.45;3.00;;;6.40;98.00;;;;;;4722879;30;20056;-90
2023/02/12 03:19:50;;;;;;;6.47;3.60;;;6.40;98.00;;;;;;4723623;30;20502;-92
2023/02/12 03:22:45;;;;;;;6.65;3.67;;;6.40;97.90;;;;;;4724278;30;20062;-91
2023/02/12 03:25:59;;;;;;;7.22;3.60;;;6.40;97.90;;;;;;4720402;30;20070;-91
2023/02/12 03:33:10;;;;;;;6.20;3.35;;;6.40;97.90;;;;;;4702572;30;20095;-87
2023/02/12 03:41:03;;;;;;;7.35;3.60;;;6.40;97.80;;;;;;4737083;30;20149;-94
2023/02/12 03:44:09;;;;;;;7.05;3.47;;;6.40;97.80;;;;;;4724627;30;20055;-87
2023/02/12 03:47:30;;;;;;;;;;;;;;;;;;;;;
2023/02/12 03:51:02;;;;;;;9.20;3.83;;;6.50;97.80;;;;;;4722407;30;20049;-87
2023/02/12 03:53:48;;;;;;;6.07;2.92;;;6.50;97.80;;;;;;4718568;30;20079;-88
2023/02/12 03:56:50;;;;;;;6.20;2.92;;;6.50;97.80;;;;;;4722358;30;20064;-87
2023/02/12 04:00:25;;;;;;;;;;;;;;;;;;;;;
2023/02/12 04:02:55;;;;;;;6.32;3.55;;;6.60;97.70;;;;;;4618838;31;20521;-87
2023/02/12 04:09:43;;;;;;;8.02;3.50;;;6.60;97.60;;;;;;4571078;31;20073;-88
2023/02/12 04:13:35;;;;;;;;;;;;;;;;;;;;;
2023/02/12 04:16:58;;;;;;;;;;;;;;;;;;;;;
2023/02/12 04:21:04;;;;;;;6.70;3.13;;;6.70;97.60;;;;;;4583190;31;20057;-87
2023/02/12 04:24:14;;;;;;;5.72;3.10;;;6.70;97.50;;;;;;4595249;31;20155;-87
2023/02/12 04:27:18;;;;;;;;;;;6.80;97.50;;;;;;4623300;31;20059;-87
2023/02/12 04:30:08;;;;;;;5.85;3.50;;;6.70;97.60;;;;;;4644564;30;19974;-87
2023/02/12 04:33:50;;;;;;;;;;;;;;;;;;;;;
2023/02/12 04:38:00;;;;;;;6.25;2.80;;;6.80;97.50;;;;;;4637393;30;20059;-87
2023/02/12 04:50:45;;;;;;;;;;;;;;;;;;;;;
2023/02/12 05:00:43;;;;;;;5.13;2.58;;;6.90;97.40;;;;;;4664856;30;20051;-87
2023/02/12 05:04:12;;;;;;;5.88;3.03;;;7.00;97.50;;;;;;4632752;30;20055;-88
2023/02/12 05:07:20;;;;;;;4.20;2.33;;;7.00;97.40;;;;;;4565211;31;20061;-87
2023/02/12 05:10:22;;;;;;;5.70;2.60;;;7.00;97.50;;;;;;4566564;31;20142;-88
2023/02/12 05:13:23;;;;;;;5.78;2.30;;;7.10;97.40;;;;;;4563968;31;20063;-87
2023/02/12 05:16:16;;;;;;;6.55;3.03;;;7.10;97.50;;;;;;4616907;31;20475;-87
2023/02/12 05:19:19;;;;;;;;;;;;;;;;;;;;;
2023/02/12 05:22:18;;;;;;;7.38;3.70;;;7.10;97.40;;;;;;4611194;31;20064;-87
2023/02/12 05:29:55;;;;;;;5.03;2.55;;;7.10;97.40;;;;;;4683888;30;20036;-92
2023/02/12 05:32:45;;;;;;;;;;;;;;;;;;;;;
2023/02/12 05:43:23;;;;;;;6.70;2.67;;;7.20;97.30;;;;;;4735492;30;20078;-94
2023/02/12 05:46:11;;;;;;;6.53;3.30;;;7.20;97.40;;;;;;4708773;30;20056;-94
2023/02/12 05:49:30;;;;;;;6.47;3.35;;;7.20;97.30;;;;;;4721808;30;20128;-93
2023/02/12 05:52:48;;;;;;;6.38;2.67;;;7.30;97.30;;;;;;4707309;30;20151;-93
2023/02/12 05:55:48;;;;;;;7.50;3.50;;;7.30;97.30;;;;;;4707504;30;20080;-94
2023/02/12 05:58:15;;;;;;;6.20;3.22;;;7.30;97.20;;;;;;4693090;30;20052;-94
2023/02/12 06:04:23;;;;;;;5.75;3.10;;;7.30;97.30;;;;;;4716091;30;20152;-94
2023/02/12 06:07:13;;;;;;;8.60;4.07;;;7.30;97.30;;;;;;4706815;30;20063;-93
2023/02/12 06:10:05;;;;;;;6.55;3.47;;;7.30;97.30;;;;;;4707325;30;20063;-93
2023/02/12 06:16:28;;;;;;;6.78;3.17;;;7.40;97.60;;;;;;4720682;30;20061;-93
2023/02/12 06:19:58;;;;;;;5.47;2.97;;;7.40;97.40;;;;;;4634475;30;20094;-93
2023/02/12 06:22:51;;;;;;;4.15;1.95;;;7.40;97.30;;;;;;4638524;30;20063;-93
2023/02/12 06:25:58;;;;;;;;;;;;;;;;;;;;;
2023/02/12 06:29:27;;;;;;;4.68;2.58;;;7.30;97.40;;;;;;4638675;30;20444;-93
2023/02/12 06:31:59;;;;;;;5.35;2.97;;;7.40;97.40;;;;;;4634926;30;20058;-93
2023/02/12 06:35:08;;;;;;;6.03;2.90;;;7.40;97.40;;;;;;4635221;30;20065;-94
2023/02/12 06:38:13;;;;;;;5.68;2.97;;;7.40;97.30;;;;;;4711337;30;20063;-94
2023/02/12 06:41:17;;;;;;;5.78;2.95;;;7.40;97.30;;;;;;4684120;30;20062;-93
2023/02/12 06:44:23;;;;;;;5.95;2.72;;;7.40;97.30;;;;;;4686416;30;20058;-93
2023/02/12 06:47:07;;;;;;;5.38;2.40;;;7.40;97.30;;;;;;4684183;30;20054;-94
2023/02/12 06:50:04;;;;;;;5.75;2.72;;;7.40;97.30;;;;;;4686049;30;20058;-93
2023/02/12 06:53:05;;;;;;;;;;;7.50;97.20;;;;;;4703410;30;20057;-93
2023/02/12 06:55:36;;;;;;;6.43;2.80;;;7.40;97.30;;;;;;4684565;30;19949;-94
2023/02/12 06:58:16;;;;;;;6.70;3.60;;;7.40;97.30;;;;;;4692347;30;20054;-92
2023/02/12 07:01:24;;;;;;;6.40;2.67;;;7.40;97.30;;;;;;4738755;30;20044;-93
2023/02/12 07:04:23;;;;;;;6.88;3.78;;;7.40;97.30;;;;;;4725676;30;20053;-93
2023/02/12 07:07:27;;;;;;;7.10;3.03;;;7.50;97.30;;;;;;4718834;30;20490;-93
2023/02/12 07:10:04;;;;;;;6.25;3.08;;;7.40;97.30;;;;;;4725128;30;20057;-93
2023/02/12 07:12:45;;;;;;;6.65;3.33;;;7.50;97.30;;;;;;4738640;30;20044;-93
2023/02/12 07:15:31;;;;;;;6.82;3.78;;;7.40;97.30;;;;;;4739405;30;20174;-94
2023/02/12 07:18:11;;;;;;;7.88;4.00;;;7.50;97.30;;;;;;4739147;30;20111;-93
2023/02/12 07:21:01;;;;;;;6.82;3.40;;;7.50;97.30;;;;;;4726430;30;20056;-93
2023/02/12 07:23:50;;;;;;;8.35;4.22;;;7.50;97.30;;;;;;4725803;30;20524;-94
2023/02/12 07:26:30;;;;;;;7.00;3.60;;;7.50;97.30;;;;;;4725058;30;20144;-93
2023/02/12 07:29:17;;;;;;;6.97;3.60;;;7.50;97.30;;;;;;4714954;30;20057;-93
2023/02/12 07:32:35;;;;;;;7.00;3.83;;;7.50;97.30;;;;;;4728505;30;20045;-93
2023/02/12 07:35:15;;;;;;;6.60;3.35;;;7.50;97.30;;;;;;4724882;30;20510;-93
2023/02/12 07:37:53;;;;;;;6.32;3.60;;;7.60;97.30;;;;;;4723565;30;20088;-94
2023/02/12 07:40:37;;;;;;;5.68;2.88;;;7.60;97.20;;;;;;4724565;30;20053;-94
2023/02/12 07:43:25;;;;;;;5.85;3.65;;;7.60;97.20;;;;;;4713376;30;20210;-94
2023/02/12 07:46:08;;;;;;;;;;;7.60;97.20;;;;;;4738137;30;20044;-94
2023/02/12 07:48:58;;;;;;;6.00;3.25;;;7.60;97.20;;;;;;4723945;30;19976;-94
2023/02/12 07:52:02;;;;;;;;;;;;;;;;;;;;;
2023/02/12 07:54:58;;;;;;;5.07;2.90;;;7.70;97.20;;;;;;4713082;30;20426;-93
2023/02/12 07:57:30;;;;;;;5.65;3.03;;;7.70;97.10;;;;;;4709959;30;20057;-93
2023/02/12 08:00:48;;;;;;;6.13;3.50;;;7.80;97.20;;;;;;4726277;30;20509;-93
2023/02/12 08:03:47;;;;;;;5.72;3.22;;;7.80;97.10;;;;;;4715419;30;20055;-94
2023/02/12 08:07:19;;;;;;;;;;;;;;;;;;;;;
2023/02/12 08:15:03;;;;;;;6.28;2.75;;;7.90;97.00;;;;;;4568194;31;20524;-94
2023/02/12 08:18:12;;;;;;;5.60;2.83;;;7.90;97.00;;;;;;4564979;31;20057;-94
2023/02/12 08:21:16;;;;;;;5.20;2.90;;;7.90;97.00;;;;;;4587857;31;20437;-93
2023/02/12 08:24:17;;;;;;;6.88;3.72;;;8.00;96.90;;;;;;4592579;31;20459;-93
2023/02/12 08:27:04;;;;;;;5.97;2.90;;;8.00;96.90;;;;;;4602075;31;20255;-93
2023/02/12 08:30:23;;;;;;;5.90;2.88;;;8.10;96.90;;;;;;4615091;31;20111;-93
2023/02/12 08:37:00;;;;;;;5.70;2.90;;;8.20;96.80;;;;;;4671638;30;20050;-93
2023/02/12 08:39:58;;;;;;;4.90;2.65;;;8.20;96.70;;;;;;4674848;30;20057;-90
2023/02/12 08:42:49;;;;;;;;;;;;;;;;;;;;;
2023/02/12 08:45:56;;;;;;;7.18;3.47;;;8.30;96.60;;;;;;4719353;30;20060;-92
2023/02/12 08:49:13;;;;;;;;;;;;;;;;;;;;;
2023/02/12 08:52:01;;;;;;;5.88;3.22;;;8.40;96.60;;;;;;4697372;30;20049;-95
2023/02/12 08:54:58;;;;;;;7.30;3.33;;;8.40;96.50;;;;;;4624906;30;20078;-92
2023/02/12 08:57:52;;;;;;;5.85;3.05;;;8.50;96.50;;;;;;4655595;30;20504;-95
2023/02/12 09:00:33;;;;;;;7.25;3.85;;;8.50;96.40;;;;;;4640679;30;20114;-94
2023/02/12 09:03:06;;;;;;;8.82;4.53;;;8.50;96.30;;;;;;4639361;30;20064;-93
2023/02/12 09:05:56;;;;;;;9.20;4.93;;;8.50;96.30;;;;;;4654741;30;20067;-94
2023/02/12 09:08:33;;;;;;;9.20;5.50;;;8.60;96.20;;;;;;4662189;30;20613;-93
2023/02/12 09:11:11;;;;;;;8.75;4.88;;;8.60;96.20;;;;;;4722123;30;20078;-93
2023/02/12 09:13:48;;;;;;;8.38;4.82;;;8.60;96.10;;;;;;4723161;30;20048;-94
2023/02/12 09:16:18;;;;;;;8.73;4.70;;;8.60;96.10;;;;;;4722679;30;20579;-94
2023/02/12 09:18:55;;;;;;;;;;;8.70;96.10;;;;;;4722356;30;20052;-95
2023/02/12 09:21:36;;;;;;;9.93;4.53;;;8.60;96.10;;;;;;4708235;30;19938;-95
2023/02/12 09:24:06;;;;;;;7.43;4.15;;;8.70;96.10;;;;;;4704726;30;20057;-93
2023/02/12 09:26:35;;;;;;;6.43;3.63;;;8.70;96.00;;;;;;4705107;30;20441;-94
2023/02/12 09:29:05;;;;;;;8.73;4.75;;;8.70;96.00;;;;;;4705110;30;20514;-94
2023/02/12 09:31:52;;;;;;;8.85;4.57;;;8.80;96.00;;;;;;4706892;30;20053;-93
2023/02/12 09:34:19;;;;;;;9.55;5.65;;;8.80;96.00;;;;;;4708801;30;20053;-92
2023/02/12 09:36:47;;;;;;;9.68;5.07;;;8.80;95.90;;;;;;4708557;30;20059;-91
2023/02/12 09:39:17;;;;;;;10.80;5.55;;;8.80;95.90;;;;;;4711828;30;20060;-92
2023/02/12 09:42:16;;;;;;;11.45;6.80;;;8.80;95.90;;;;;;4705828;30;20075;-91
2023/02/12 09:44:56;;;;;;;9.45;5.35;;;8.80;95.80;;;;;;4705143;30;20053;-91
2023/02/12 09:48:31;;;;;;;9.98;5.47;;;8.80;96.10;;;;;;4690665;30;20060;-94
2023/02/12 09:55:34;;;;;;;14.40;8.18;;;8.80;95.70;;;;;;4684510;30;20037;-95
2023/02/12 10:06:58;;;;;;;15.52;8.88;;;8.80;95.50;;;;;;4621348;31;20130;-93
2023/02/12 10:09:41;;;;;;;13.38;7.68;;;8.80;95.50;;;;;;4634397;30;20054;-94
2023/02/12 10:12:43;;;;;;;13.48;8.23;;;8.90;95.50;;;;;;4656108;30;20050;-95
2023/02/12 10:15:37;;;;;;;13.43;7.68;;;8.90;95.40;;;;;;4722363;30;20506;-94
2023/02/12 10:18:26;;;;;;;11.98;6.55;;;9.00;95.40;;;;;;4707455;30;20089;-94
2023/02/12 10:21:47;;;;;;;11.20;6.47;;;9.00;95.40;;;;;;4723116;30;20057;-95
2023/02/12 10:24:52;;;;;;;10.25;5.90;;;9.00;95.40;;;;;;4707216;30;20053;-94
2023/02/12 10:27:33;;;;;;;;;;;9.00;95.40;;;;;;4705950;30;20052;-95
2023/02/12 10:30:27;;;;;;;8.70;4.70;;;9.00;95.50;;;;;;4707448;30;19962;-95
2023/02/12 10:33:22;;;;;;;9.45;4.63;;;9.10;95.40;;;;;;4707211;30;20048;-96
2023/02/12 10:36:43;;;;;;;8.02;4.43;;;9.20;95.40;;;;;;4708616;30;20057;-95
2023/02/12 10:39:36;;;;;;;9.13;4.88;;;9.20;95.40;;;;;;4707654;30;20092;-95
2023/02/12 10:42:50;;;;;;;11.02;5.95;;;9.20;95.40;;;;;;4723162;30;20055;-95
2023/02/12 10:45:46;;;;;;;11.57;6.00;;;9.30;95.20;;;;;;4717162;30;20077;-95
2023/02/12 10:48:29;;;;;;;11.80;6.75;;;9.20;95.20;;;;;;4706614;30;20056;-96
2023/02/12 10:51:21;;;;;;;10.98;6.57;;;9.30;95.20;;;;;;4708066;30;20159;-95
2023/02/12 10:54:36;;;;;;;10.40;5.78;;;9.30;95.20;;;;;;4707812;30;20059;-95
2023/02/12 10:57:39;;;;;;;9.35;5.55;;;9.30;95.20;;;;;;4707269;30;20053;-96
2023/02/12 11:01:20;;;;;;;8.75;5.00;;;9.30;95.20;;;;;;4708078;30;20138;-96
2023/02/12 11:04:31;;;;;;;10.00;5.70;;;9.30;95.20;;;;;;4701761;30;20053;-96
2023/02/12 11:08:04;;;;;;;8.75;4.80;;;9.30;95.20;;;;;;4709119;30;20383;-95
2023/02/12 11:10:36;;;;;;;8.05;5.03;;;9.30;95.30;;;;;;4717430;30;20060;-96
2023/02/12 11:13:26;;;;;;;6.97;3.63;;;9.30;95.20;;;;;;4721117;30;20060;-95
2023/02/12 11:16:01;;;;;;;7.93;3.72;;;9.40;95.20;;;;;;4707503;30;20059;-96
2023/02/12 11:18:46;;;;;;;7.35;3.85;;;9.40;95.20;;;;;;4721130;30;20143;-95
2023/02/12 11:21:27;;;;;;;;;;;9.50;95.10;;;;;;4696872;30;20057;-96
2023/02/12 11:24:13;;;;;;;10.27;5.97;;;9.50;95.00;;;;;;4710030;30;19930;-96
2023/02/12 11:26:45;;;;;;;10.30;5.40;;;9.50;94.90;;;;;;4710304;30;20143;-96
2023/02/12 11:29:28;;;;;;;10.70;6.05;;;9.50;94.80;;;;;;4697450;30;20510;-95
2023/02/12 11:32:13;;;;;;;;;;;;;;;;;;;;;
2023/02/12 11:35:38;;;;;;;20.30;9.52;;;9.50;94.60;;;;;;4724086;30;20072;-96
2023/02/12 11:38:39;;;;;;;17.92;10.18;;;9.50;94.10;;;;;;4658511;30;20077;-95
2023/02/12 11:41:28;;;;;;;20.15;10.35;;;9.50;94.00;;;;;;4643630;30;20078;-94
2023/02/12 11:44:22;;;;;;;17.25;9.13;;;9.50;94.00;;;;;;4657685;30;20056;-95
2023/02/12 11:47:43;;;;;;;14.85;7.43;;;9.50;94.00;;;;;;4671140;30;20060;-95
2023/02/12 11:50:23;;;;;;;12.32;7.10;;;9.50;94.00;;;;;;4692099;30;20053;-85
2023/02/12 11:53:31;;;;;;;11.80;6.65;;;9.50;93.90;;;;;;4689433;30;20594;-85
2023/02/12 11:56:23;;;;;;;12.23;6.30;;;9.60;93.90;;;;;;4692324;30;20055;-87
2023/02/12 11:59:52;;;;;;;16.83;7.90;;;9.60;93.80;;;;;;4707762;30;20040;-85
2023/02/12 12:03:42;;;;;;;18.50;9.77;;;9.70;93.50;;;;;;4716919;30;20053;-85
2023/02/12 12:06:18;;;;;;;19.33;10.10;;;9.70;93.30;;;;;;4718570;30;20057;-85
2023/02/12 12:09:19;;;;;;;15.95;9.02;;;9.80;93.30;;;;;;4697071;30;20076;-90
2023/02/12 12:12:53;;;;;;;18.23;9.93;;;9.90;93.30;;;;;;4739347;30;20060;-88
2023/02/12 12:21:59;;;;;;;20.67;12.27;;;10.10;93.00;;;;;;4721389;30;20057;-85
2023/02/12 12:24:36;;;;;;;21.17;11.35;;;10.10;92.60;;;;;;4721271;30;20056;-85
2023/02/12 12:28:01;;;;;;;18.50;10.52;;;10.10;92.50;;;;;;4733945;30;20057;-84
2023/02/12 12:30:06;;;;;;;14.88;8.48;;;10.20;92.60;;;;;;4720846;30;20053;-81
2023/02/12 12:32:40;;;;;;;15.88;9.18;;;10.20;92.70;;;;;;4720056;30;20056;-85
2023/02/12 12:35:11;;;;;;;12.70;7.05;;;10.20;92.60;;;;;;4715832;30;20057;-83
2023/02/12 12:38:00;;;;;;;11.35;6.88;;;10.30;92.70;;;;;;4720766;30;20052;-84
2023/02/12 12:41:38;;;;;;;12.75;6.50;;;10.40;92.60;;;;;;4720634;30;20052;-96
2023/02/12 12:44:51;;;;;;;11.23;5.80;;;10.40;92.60;;;;;;4711045;30;20057;-84
2023/02/12 12:47:35;;;;;;;12.13;6.13;;;10.30;92.60;;;;;;4724907;30;20063;-83
2023/02/12 12:50:11;;;;;;;10.27;5.75;;;10.30;92.50;;;;;;4722235;30;20059;-85
2023/02/12 12:53:03;;;;;;;12.75;6.28;;;10.30;92.50;;;;;;4705468;30;20056;-83
2023/02/12 12:55:39;;;;;;;;;;;10.30;92.40;;;;;;4720960;30;20063;-83
2023/02/12 12:58:15;;;;;;;11.60;6.50;;;10.20;92.60;;;;;;4734734;30;20393;-85
2023/02/12 13:01:04;;;;;;;12.32;6.07;;;10.20;92.50;;;;;;4716013;30;20171;-82
2023/02/12 13:03:52;;;;;;;16.23;8.65;;;10.20;92.40;;;;;;4720358;30;20110;-83
2023/02/12 13:06:48;;;;;;;14.90;8.23;;;10.20;91.90;;;;;;4719825;30;20053;-82
2023/02/12 13:09:40;;;;;;;13.65;6.85;;;10.20;91.90;;;;;;4719385;30;20069;-82
2023/02/12 13:12:19;;;;;;;11.98;6.10;;;10.30;92.00;;;;;;4699765;30;20143;-82
2023/02/12 13:15:27;;;;;;;14.30;7.28;;;10.30;92.10;;;;;;4719085;30;20394;-82
2023/02/12 13:18:23;;;;;;;13.20;6.97;;;10.30;91.90;;;;;;4680238;30;20056;-81
2023/02/12 13:33:37;;;;;;;11.60;5.30;;;10.20;91.50;;;;;;4947382;24;20063;-96
2023/02/12 13:36:11;;;;;;;13.68;7.75;;;10.10;91.60;;;;;;4728199;30;20048;-96
2023/02/12 13:39:22;;;;;;;11.45;5.65;;;10.20;91.60;;;;;;4741062;30;20060;-89
2023/02/12 13:42:18;;;;;;;12.95;5.63;;;10.20;91.60;;;;;;4740601;30;20047;-91
2023/02/12 13:45:17;;;;;;;11.20;6.43;;;10.20;91.60;;;;;;4729170;30;20056;-88
2023/02/12 13:47:53;;;;;;;9.23;5.65;;;10.20;91.60;;;;;;4757053;30;20072;-91
2023/02/12 13:54:30;;;;;;;14.15;7.57;;;10.20;91.30;;;;;;4755713;30;20032;-84
2023/02/12 13:57:01;;;;;;;13.70;6.55;;;10.10;91.30;;;;;;4741227;30;20071;-85
2023/02/12 13:59:57;;;;;;;12.13;6.85;;;10.10;91.30;;;;;;4728350;30;20051;-93
2023/02/12 14:02:52;;;;;;;;;;;;;;;;;;;;;
2023/02/12 14:05:37;;;;;;;13.32;7.35;;;10.10;91.20;;;;;;4743658;30;20059;-87
2023/02/12 14:08:06;;;;;;;14.32;7.00;;;10.00;91.00;;;;;;4746507;30;20055;-87
2023/02/12 14:10:35;;;;;;;15.63;8.27;;;10.00;91.10;;;;;;4740976;30;20409;-88
2023/02/12 14:13:09;;;;;;;15.95;7.82;;;10.00;91.20;;;;;;4740536;30;20043;-91
2023/02/12 14:23:27;;;;;;;12.23;6.40;;;10.00;91.20;;;;;;4756627;30;20501;-90
2023/02/12 14:26:05;;;;;;;10.55;5.78;;;10.00;91.20;;;;;;4742297;30;20052;-88
2023/02/12 14:29:53;;;;;;;10.40;6.13;;;10.00;91.30;;;;;;4746246;30;20051;-91
2023/02/12 14:33:05;;;;;;;10.57;5.93;;;10.00;91.20;;;;;;4701557;30;20069;-91
2023/02/12 14:36:03;;;;;;;9.63;5.72;;;10.00;91.20;;;;;;4687622;30;20058;-92
2023/02/12 14:38:44;;;;;;;9.93;6.18;;;10.00;91.20;;;;;;4751576;30;20059;-92
2023/02/12 14:41:40;;;;;;;11.65;6.00;;;9.90;91.20;;;;;;4741247;30;20497;-91
2023/02/12 14:44:26;;;;;;;10.32;5.28;;;10.00;91.20;;;;;;4755189;30;20409;-89
2023/02/12 14:47:31;;;;;;;10.98;5.97;;;9.90;91.20;;;;;;4742086;30;20044;-88
2023/02/12 14:50:25;;;;;;;10.43;4.95;;;9.90;91.20;;;;;;4698169;30;20534;-88
2023/02/12 14:53:32;;;;;;;10.02;5.25;;;9.90;91.20;;;;;;4700022;30;20049;-93
2023/02/12 15:00:38;;;;;;;12.88;6.25;;;9.90;91.20;;;;;;4688317;30;20134;-88
2023/02/12 15:03:11;;;;;;;12.02;6.13;;;9.80;91.10;;;;;;4705113;30;20064;-86
2023/02/12 15:05:45;;;;;;;11.32;6.35;;;9.80;91.10;;;;;;4704456;30;20057;-88
2023/02/12 15:08:32;;;;;;;12.63;6.25;;;9.80;91.10;;;;;;4690495;30;20057;-86
2023/02/12 15:11:18;;;;;;;11.52;6.35;;;9.80;90.90;;;;;;4693371;30;20053;-90
2023/02/12 15:13:56;;;;;;;9.02;5.22;;;9.80;91.00;;;;;;4704245;30;20049;-86
2023/02/12 15:17:16;;;;;;;9.52;5.75;;;9.80;91.10;;;;;;4704723;30;20057;-89
2023/02/12 15:20:31;;;;;;;10.23;5.05;;;9.80;91.10;;;;;;4653799;30;20078;-86
2023/02/12 15:23:02;;;;;;;8.27;3.92;;;9.80;91.20;;;;;;4679723;30;20096;-87
2023/02/12 15:25:36;;;;;;;6.70;3.45;;;9.70;91.30;;;;;;4743570;30;20047;-89
2023/02/12 15:32:37;;;;;;;6.97;3.47;;;9.80;91.30;;;;;;4758212;30;20089;-93
2023/02/12 15:35:25;;;;;;;5.88;3.10;;;9.80;91.30;;;;;;4717841;30;20493;-90
2023/02/12 15:39:03;;;;;;;6.32;2.63;;;9.80;91.40;;;;;;4754061;30;20135;-90
2023/02/12 15:45:35;;;;;;;4.93;2.63;;;9.70;91.40;;;;;;4761808;30;20114;-88
2023/02/12 15:48:35;;;;;;;6.53;3.10;;;9.70;91.60;;;;;;4743508;30;20071;-89
2023/02/12 15:56:19;;;;;;;5.22;2.15;;;9.60;91.60;;;;;;4702050;30;20081;-91
2023/02/12 15:58:58;;;;;;;5.53;2.60;;;9.60;91.70;;;;;;4683655;30;20057;-88
2023/02/12 16:01:28;;;;;;;6.70;2.88;;;9.60;91.80;;;;;;4673031;30;20104;-86
2023/02/12 16:04:01;;;;;;;4.32;2.20;;;9.60;91.80;;;;;;4682999;30;20057;-89
2023/02/12 16:06:46;;;;;;;5.68;2.22;;;9.60;91.80;;;;;;4672469;30;20058;-86
2023/02/12 16:09:31;;;;;;;5.38;1.92;;;9.60;91.90;;;;;;4672006;30;20049;-86
2023/02/12 16:12:09;;;;;;;5.13;2.00;;;9.60;91.90;;;;;;4686534;30;20068;-86
2023/02/12 16:15:21;;;;;;;5.90;3.08;;;9.50;91.90;;;;;;4683689;30;20314;-87
2023/02/12 16:18:29;;;;;;;4.47;2.58;;;9.50;91.90;;;;;;4682638;30;20521;-85
2023/02/12 16:21:14;;;;;;;5.18;2.58;;;9.50;91.90;;;;;;4684024;30;20115;-83
2023/02/12 16:23:51;;;;;;;5.55;2.70;;;9.50;91.90;;;;;;4755233;30;20071;-84
2023/02/12 16:26:23;;;;;;;;;;;9.50;92.00;;;;;;4755440;30;20083;-85
2023/02/12 16:28:57;;;;;;;5.80;2.10;;;9.40;92.00;;;;;;4753627;30;19969;-93
2023/02/12 16:32:01;;;;;;;4.25;1.70;;;9.40;92.10;;;;;;4736236;30;20047;-92
2023/02/12 16:34:38;;;;;;;;;;;9.40;92.10;;;;;;4743156;30;20090;-90
2023/02/12 16:37:50;;;;;;;4.55;2.10;;;9.40;92.10;;;;;;4737075;30;20012;-87
2023/02/12 16:40:31;;;;;;;;;;;;;;;;;;;;;
2023/02/12 16:43:37;;;;;;;5.45;2.58;;;9.40;92.20;;;;;;4757220;30;20055;-94
2023/02/12 16:46:05;;;;;;;6.88;2.60;;;9.40;92.10;;;;;;4733463;30;20054;-95
2023/02/12 16:48:52;;;;;;;4.85;2.20;;;9.30;92.20;;;;;;4757396;30;20597;-93
2023/02/12 16:55:06;;;;;;;5.80;2.83;;;9.30;92.20;;;;;;4744931;30;20128;-93
2023/02/12 17:08:42;;;;;;;4.00;1.65;;;9.20;92.30;;;;;;4650572;30;20135;-96
2023/02/12 17:11:34;;;;;;;4.55;1.73;;;9.20;92.30;;;;;;4648594;30;20055;-90
2023/02/12 17:18:45;;;;;;;6.03;2.55;;;9.20;92.50;;;;;;4649005;30;20118;-90
2023/02/12 17:21:48;;;;;;;;;;;;;;;;;;;;;
2023/02/12 17:24:32;;;;;;;5.03;1.90;;;9.10;92.50;;;;;;4674978;30;20050;-88
2023/02/12 17:27:12;;;;;;;4.43;1.80;;;9.10;92.60;;;;;;4675366;30;20054;-89
2023/02/12 17:29:46;;;;;;;5.38;2.35;;;9.10;92.60;;;;;;4706583;30;20053;-89
2023/02/12 17:32:14;;;;;;;4.70;2.10;;;9.10;92.70;;;;;;4694532;30;20058;-91
2023/02/12 17:34:45;;;;;;;5.38;2.35;;;9.10;92.70;;;;;;4749759;30;20055;-95
2023/02/12 17:38:14;;;;;;;4.20;1.90;;;9.10;92.70;;;;;;4907516;24;20441;-90
2023/02/12 17:40:57;;;;;;;7.13;2.60;;;9.10;92.70;;;;;;4738839;30;20457;-92
2023/02/12 17:43:45;;;;;;;5.85;2.95;;;9.10;92.70;;;;;;4762598;30;20142;-95
2023/02/12 17:46:32;;;;;;;4.78;2.38;;;9.10;92.70;;;;;;4769481;30;20126;-92
2023/02/12 18:07:45;;;;;;;4.72;1.88;;;9.00;92.70;;;;;;5002058;24;20099;-94
2023/02/12 18:15:15;;;;;;;7.78;2.70;;;9.00;92.70;;;;;;4700116;30;20098;-92
2023/02/12 18:17:47;;;;;;;5.20;2.28;;;9.00;92.80;;;;;;4704118;30;20056;-87
2023/02/12 18:26:04;;;;;;;5.53;2.45;;;9.00;92.80;;;;;;4759119;30;20030;-84
2023/02/12 18:28:47;;;;;;;8.02;3.47;;;9.00;92.80;;;;;;4704782;30;20047;-89
2023/02/12 18:31:38;;;;;;;5.28;2.80;;;9.00;92.80;;;;;;4739174;30;20143;-85
2023/02/12 18:34:08;;;;;;;6.90;3.45;;;9.00;92.80;;;;;;4734184;30;20059;-89
2023/02/12 18:36:36;;;;;;;7.57;4.15;;;9.00;92.80;;;;;;4740633;30;20043;-89
2023/02/12 18:39:03;;;;;;;7.53;4.03;;;9.00;92.80;;;;;;4737187;30;20510;-88
2023/02/12 18:41:34;;;;;;;6.70;3.80;;;9.00;92.80;;;;;;4750388;30;20058;-89
2023/02/12 18:44:02;;;;;;;7.60;3.75;;;9.00;92.80;;;;;;4746260;30;20052;-87
2023/02/12 18:46:39;;;;;;;6.60;3.90;;;9.00;92.90;;;;;;4739641;30;20052;-84
2023/02/12 18:49:48;;;;;;;9.18;4.65;;;9.00;92.80;;;;;;4740865;30;20051;-85
2023/02/12 18:52:24;;;;;;;9.00;4.68;;;9.00;92.80;;;;;;4745506;30;20059;-85
2023/02/12 18:55:20;;;;;;;9.15;5.40;;;9.00;92.90;;;;;;4748694;30;20130;-84
2023/02/12 18:57:47;;;;;;;10.75;5.95;;;9.00;92.90;;;;;;4739771;30;20051;-85